createdAt,value
2023-04-11T00:01:07.872Z,157681.28
2023-04-11T00:03:39.015Z,157661.34
2023-04-11T00:06:07.123Z,157664.00
2023-04-11T00:08:34.738Z,157661.34
2023-04-11T00:11:02.080Z,157658.66
2023-04-11T00:13:29.660Z,157658.66
2023-04-11T00:15:59.419Z,157656.03
2023-04-11T00:18:27.281Z,157646.75
2023-04-11T00:20:54.421Z,157642.72
2023-04-11T00:23:21.941Z,157630.81
2023-04-11T00:25:49.029Z,157612.19
2023-04-11T00:28:16.609Z,157618.84
2023-04-11T00:30:43.851Z,157616.16
2023-04-11T00:33:11.861Z,157606.88
2023-04-11T00:35:40.102Z,157606.88
2023-04-11T00:38:07.692Z,157580.31
2023-04-11T00:40:34.999Z,157571.03
2023-04-11T00:43:02.753Z,157569.72
2023-04-11T00:45:30.184Z,157568.38
2023-04-11T00:47:58.753Z,157565.69
2023-04-11T00:50:26.586Z,157551.09
2023-04-11T00:52:55.725Z,157528.53
2023-04-11T00:55:23.211Z,157515.25
2023-04-11T00:57:55.112Z,157515.25
2023-04-11T01:00:23.034Z,157511.25
2023-04-11T01:02:50.736Z,157504.66
2023-04-11T01:05:19.312Z,157509.91
2023-04-11T01:07:49.243Z,157501.97
2023-04-11T01:10:17.003Z,157499.31
2023-04-11T01:12:46.178Z,157488.69
2023-04-11T01:15:13.654Z,157466.13
2023-04-11T01:17:44.294Z,157458.16
2023-04-11T01:20:13.197Z,157443.56
2023-04-11T01:22:41.976Z,157443.56
2023-04-11T01:25:09.890Z,157439.56
2023-04-11T01:27:37.902Z,157427.63
2023-04-11T01:30:06.303Z,157421.00
2023-04-11T01:32:35.511Z,157431.59
2023-04-11T01:35:04.669Z,157421.00
2023-04-11T01:37:32.328Z,157413.00
2023-04-11T01:39:59.698Z,157411.69
2023-04-11T01:42:27.489Z,157421.00
2023-04-11T01:44:54.814Z,157414.38
2023-04-11T01:47:22.726Z,157406.34
2023-04-11T01:49:50.976Z,157403.72
2023-04-11T01:52:18.434Z,157389.13
2023-04-11T01:54:45.898Z,157367.88
2023-04-11T01:57:13.646Z,157375.84
2023-04-11T01:59:40.859Z,157362.56
2023-04-11T02:02:08.563Z,157387.81
2023-04-11T02:04:35.868Z,157409.03
2023-04-11T02:07:03.305Z,157427.63
2023-04-11T02:09:30.658Z,157438.22
2023-04-11T02:11:59.911Z,157438.22
2023-04-11T02:14:27.322Z,157438.22
2023-04-11T02:16:56.572Z,157424.97
2023-04-11T02:19:26.310Z,157442.25
2023-04-11T02:21:54.013Z,157440.88
2023-04-11T02:24:21.551Z,157436.91
2023-04-11T02:26:49.492Z,157430.28
2023-04-11T02:29:18.137Z,157415.69
2023-04-11T02:31:48.620Z,157406.34
2023-04-11T02:34:17.938Z,157403.72
2023-04-11T02:36:46.108Z,157379.84
2023-04-11T02:39:14.080Z,157359.94
2023-04-11T02:41:42.728Z,157341.31
2023-04-11T02:44:12.109Z,157332.06
2023-04-11T02:46:41.322Z,157334.69
2023-04-11T02:49:09.460Z,157304.19
2023-04-11T02:51:37.240Z,157318.78
2023-04-11T02:54:06.349Z,157301.56
2023-04-11T02:56:38.883Z,157309.50
2023-04-11T02:59:07.216Z,157301.56
2023-04-11T03:01:39.944Z,157297.56
2023-04-11T03:04:10.482Z,157288.28
2023-04-11T03:06:54.943Z,157332.06
2023-04-11T03:09:23.585Z,157354.59
2023-04-11T03:11:51.468Z,157393.13
2023-04-11T03:14:18.940Z,157462.13
2023-04-11T03:16:46.992Z,157483.34
2023-04-11T03:19:14.443Z,157521.88
2023-04-11T03:21:42.211Z,157548.47
2023-04-11T03:24:09.932Z,157567.03
2023-04-11T03:26:37.597Z,157576.34
2023-04-11T03:29:10.630Z,157584.31
2023-04-11T03:31:51.075Z,157563.06
2023-04-11T03:34:19.112Z,157555.09
2023-04-11T03:36:46.752Z,157527.22
2023-04-11T03:39:14.770Z,157500.66
2023-04-11T03:41:42.648Z,157519.25
2023-04-11T03:44:11.339Z,157541.81
2023-04-11T03:46:39.223Z,157509.91
2023-04-11T03:49:07.110Z,157495.31
2023-04-11T03:51:35.221Z,157501.97
2023-04-11T03:54:07.486Z,157487.38
2023-04-11T03:56:40.947Z,157498.00
2023-04-11T03:59:14.738Z,157531.16
2023-04-11T04:01:54.546Z,157585.63
2023-04-11T04:04:22.266Z,157617.53
2023-04-11T04:06:59.254Z,157632.13
2023-04-11T04:09:34.654Z,157645.41
2023-04-11T04:12:02.708Z,157669.31
2023-04-11T04:14:43.150Z,157690.56
2023-04-11T04:17:12.192Z,157690.56
2023-04-11T04:19:39.823Z,157721.09
2023-04-11T04:22:12.130Z,157737.09
2023-04-11T04:24:47.837Z,157751.69
2023-04-11T04:27:22.104Z,157775.59
2023-04-11T04:29:56.229Z,157787.56
2023-04-11T04:32:41.202Z,157828.78
2023-04-11T04:35:14.290Z,157867.31
2023-04-11T04:37:46.047Z,157905.88
2023-04-11T04:40:26.258Z,157964.34
2023-04-11T04:43:02.415Z,158042.81
2023-04-11T04:45:51.407Z,158109.31
2023-04-11T04:48:25.746Z,158169.22
2023-04-11T04:50:53.645Z,158221.13
2023-04-11T04:53:21.538Z,158265.03
2023-04-11T04:55:56.753Z,158322.25
2023-04-11T04:58:25.779Z,158406.09
2023-04-11T05:00:56.349Z,158504.63
2023-04-11T05:03:34.911Z,158587.22
2023-04-11T05:06:07.580Z,158661.78
2023-04-11T05:08:35.657Z,158756.41
2023-04-11T05:11:06.717Z,158841.72
2023-04-11T05:13:34.986Z,158927.03
2023-04-11T05:16:04.423Z,159005.69
2023-04-11T05:18:32.319Z,159076.38
2023-04-11T05:20:59.729Z,159095.06
2023-04-11T05:23:33.936Z,159171.09
2023-04-11T05:26:03.510Z,159231.09
2023-04-11T05:28:33.871Z,159295.19
2023-04-11T05:31:04.438Z,159365.94
2023-04-11T05:33:32.143Z,159392.63
2023-04-11T05:36:00.274Z,159401.97
2023-04-11T05:38:28.305Z,159438.03
2023-04-11T05:40:55.598Z,159428.66
2023-04-11T05:43:23.345Z,159428.66
2023-04-11T05:45:50.959Z,159359.25
2023-04-11T05:48:23.163Z,159381.97
2023-04-11T05:50:50.950Z,159389.97
2023-04-11T05:53:19.069Z,159435.34
2023-04-11T05:55:46.665Z,159438.03
2023-04-11T05:58:14.360Z,159494.13
2023-04-11T06:00:41.682Z,159506.09
2023-04-11T06:03:09.823Z,159518.13
2023-04-11T06:05:37.341Z,159536.84
2023-04-11T06:08:07.148Z,159578.19
2023-04-11T06:10:35.596Z,159634.28
2023-04-11T06:13:03.295Z,159671.72
2023-04-11T06:15:30.727Z,159702.47
2023-04-11T06:17:58.445Z,159654.34
2023-04-11T06:20:26.009Z,159643.66
2023-04-11T06:22:53.596Z,159624.94
2023-04-11T06:25:21.939Z,159599.63
2023-04-11T06:27:50.576Z,159606.25
2023-04-11T06:30:17.889Z,159604.91
2023-04-11T06:32:45.987Z,159637.00
2023-04-11T06:35:13.392Z,159743.91
2023-04-11T06:37:42.711Z,159830.72
2023-04-11T06:40:10.602Z,159841.44
2023-04-11T06:42:38.312Z,159834.75
2023-04-11T06:45:06.688Z,159868.19
2023-04-11T06:47:35.711Z,159940.34
2023-04-11T06:50:03.367Z,160025.88
2023-04-11T06:52:31.382Z,160134.22
2023-04-11T06:54:58.688Z,160211.81
2023-04-11T06:57:26.389Z,160191.72
2023-04-11T06:59:53.718Z,160157.00
2023-04-11T07:02:23.399Z,160102.16
2023-04-11T07:04:51.912Z,160036.56
2023-04-11T07:07:19.606Z,160059.38
2023-04-11T07:09:47.719Z,160043.25
2023-04-11T07:12:15.801Z,159988.47
2023-04-11T07:14:43.330Z,160029.94
2023-04-11T07:17:11.181Z,160032.59
2023-04-11T07:19:38.545Z,160134.22
2023-04-11T07:22:06.383Z,160250.63
2023-04-11T07:24:33.728Z,160306.81
2023-04-11T07:27:02.092Z,160349.63
2023-04-11T07:29:29.657Z,160360.31
2023-04-11T07:31:57.462Z,160376.41
2023-04-11T07:34:25.126Z,160446.00
2023-04-11T07:36:52.648Z,160459.38
2023-04-11T07:39:19.943Z,160380.38
2023-04-11T07:41:48.584Z,160346.91
2023-04-11T07:44:16.473Z,160306.81
2023-04-11T07:46:44.246Z,160258.63
2023-04-11T07:49:11.680Z,160222.53
2023-04-11T07:51:39.901Z,160268.00
2023-04-11T07:54:08.887Z,160272.03
2023-04-11T07:56:36.632Z,160202.47
2023-04-11T07:59:04.610Z,160237.25
2023-04-11T08:01:32.651Z,160265.34
2023-04-11T08:04:00.484Z,160318.81
2023-04-11T08:06:29.385Z,160372.34
2023-04-11T08:08:58.870Z,160369.69
2023-04-11T08:11:26.765Z,160425.97
2023-04-11T08:13:54.205Z,160440.69
2023-04-11T08:16:22.317Z,160446.00
2023-04-11T08:18:49.608Z,160454.06
2023-04-11T08:21:17.300Z,160510.28
2023-04-11T08:23:44.586Z,160574.53
2023-04-11T08:26:12.982Z,160541.06
2023-04-11T08:28:42.804Z,160557.09
2023-04-11T08:31:13.384Z,160543.72
2023-04-11T08:33:41.252Z,160534.34
2023-04-11T08:36:10.655Z,160539.72
2023-04-11T08:38:38.793Z,160510.28
2023-04-11T08:41:06.591Z,160537.00
2023-04-11T08:43:35.068Z,160492.84
2023-04-11T08:46:04.222Z,160531.69
2023-04-11T08:48:32.602Z,160577.19
2023-04-11T08:51:00.477Z,160591.91
2023-04-11T08:53:28.544Z,160634.75
2023-04-11T08:55:56.233Z,160642.78
2023-04-11T08:58:23.522Z,160609.34
2023-04-11T09:00:51.307Z,160628.06
2023-04-11T09:03:18.862Z,160665.59
2023-04-11T09:05:49.518Z,160591.91
2023-04-11T09:08:17.449Z,160562.47
2023-04-11T09:10:46.447Z,160593.25
2023-04-11T09:13:26.745Z,160523.63
2023-04-11T09:16:09.500Z,160474.09
2023-04-11T09:18:41.683Z,160436.63
2023-04-11T09:21:14.082Z,160400.50
2023-04-11T09:23:42.023Z,160380.38
2023-04-11T09:26:11.370Z,160435.31
2023-04-11T09:28:52.555Z,160467.41
2023-04-11T09:31:21.429Z,160506.25
2023-04-11T09:33:56.218Z,160554.44
2023-04-11T09:36:25.437Z,160527.66
2023-04-11T09:38:54.167Z,160533.03
2023-04-11T09:41:34.986Z,160541.06
2023-04-11T09:44:02.647Z,160553.13
2023-04-11T09:46:30.419Z,160573.16
2023-04-11T09:48:57.934Z,160589.25
2023-04-11T09:53:58.091Z,160630.75
2023-04-11T09:56:27.780Z,160652.19
2023-04-11T09:58:57.624Z,160636.09
2023-04-11T10:01:25.764Z,160660.22
2023-04-11T10:03:54.456Z,160650.81
2023-04-11T10:06:34.366Z,160665.59
2023-04-11T10:09:09.813Z,160646.81
2023-04-11T10:11:37.782Z,160598.59
2023-04-11T10:14:05.122Z,160606.63
2023-04-11T10:16:34.503Z,160587.94
2023-04-11T10:19:02.109Z,160605.31
2023-04-11T10:21:36.716Z,160644.09
2023-04-11T10:24:13.468Z,160644.09
2023-04-11T10:26:55.179Z,160684.28
2023-04-11T10:29:34.974Z,160708.47
2023-04-11T10:32:22.421Z,160652.19
2023-04-11T10:34:52.656Z,160589.25
2023-04-11T10:37:39.170Z,160499.53
2023-04-11T10:40:10.643Z,160503.59
2023-04-11T10:42:42.496Z,160512.94
2023-04-11T10:45:29.469Z,160510.28
2023-04-11T10:47:57.401Z,160464.75
2023-04-11T10:50:27.603Z,160486.16
2023-04-11T10:53:05.306Z,160549.06
2023-04-11T10:55:50.153Z,160575.88
2023-04-11T10:58:22.481Z,160563.78
2023-04-11T11:00:50.073Z,160555.78
2023-04-11T11:03:19.440Z,160551.72
2023-04-11T11:06:08.979Z,160533.03
2023-04-11T11:08:46.831Z,160491.53
2023-04-11T11:11:15.425Z,160475.47
2023-04-11T11:13:54.119Z,160437.97
2023-04-11T11:16:23.673Z,160456.72
2023-04-11T11:18:56.183Z,160459.38
2023-04-11T11:21:28.181Z,160463.41
2023-04-11T11:24:00.737Z,160529.00
2023-04-11T11:26:46.884Z,160598.59
2023-04-11T11:29:14.601Z,160617.38
2023-04-11T11:31:46.050Z,160606.63
2023-04-11T11:34:24.195Z,160598.59
2023-04-11T11:36:53.019Z,160606.63
2023-04-11T11:39:22.123Z,160578.50
2023-04-11T11:41:51.295Z,160565.13
2023-04-11T11:44:28.988Z,160595.94
2023-04-11T11:47:06.311Z,160656.19
2023-04-11T11:49:53.197Z,160724.53
2023-04-11T11:52:41.087Z,160728.53
2023-04-11T11:55:32.657Z,160713.81
2023-04-11T11:58:02.361Z,160712.47
2023-04-11T12:00:32.818Z,160700.41
2023-04-11T12:03:01.074Z,160665.59
2023-04-11T12:05:33.325Z,160687.06
2023-04-11T12:08:06.029Z,160695.09
2023-04-11T12:10:38.415Z,160682.97
2023-04-11T12:13:27.223Z,160665.59
2023-04-11T12:15:56.363Z,160684.28
2023-04-11T12:18:24.881Z,160649.47
2023-04-11T12:20:53.210Z,160595.94
2023-04-11T12:23:21.379Z,160562.47
2023-04-11T12:25:49.175Z,160559.81
2023-04-11T12:28:16.648Z,160578.50
2023-04-11T12:30:44.338Z,160603.97
2023-04-11T12:33:11.656Z,160654.84
2023-04-11T12:35:39.501Z,160657.50
2023-04-11T12:38:07.965Z,160649.47
2023-04-11T12:40:36.040Z,160649.47
2023-04-11T12:43:03.404Z,160670.91
2023-04-11T12:45:32.624Z,160660.22
2023-04-11T12:48:00.264Z,160654.84
2023-04-11T12:50:28.051Z,160633.44
2023-04-11T12:52:56.333Z,160632.09
2023-04-11T12:55:24.320Z,160633.44
2023-04-11T12:57:51.626Z,160638.78
2023-04-11T13:00:19.551Z,160634.75
2023-04-11T13:02:47.213Z,160603.97
2023-04-11T13:05:16.731Z,160628.06
2023-04-11T13:07:45.342Z,160629.38
2023-04-11T13:10:14.516Z,160636.09
2023-04-11T13:12:46.022Z,160652.19
2023-04-11T13:15:16.542Z,160628.06
2023-04-11T13:17:44.214Z,160632.09
2023-04-11T13:20:13.204Z,160593.25
2023-04-11T13:22:41.789Z,160583.88
2023-04-11T13:25:10.611Z,160586.53
2023-04-11T13:27:39.727Z,160546.41
2023-04-11T13:30:10.096Z,160538.41
2023-04-11T13:32:37.720Z,160561.13
2023-04-11T13:35:06.425Z,160557.09
2023-04-11T13:37:33.954Z,160562.47
2023-04-11T13:40:01.758Z,160545.03
2023-04-11T13:42:29.181Z,160575.88
2023-04-11T13:44:56.842Z,160610.69
2023-04-11T13:47:24.324Z,160614.66
2023-04-11T13:49:52.013Z,160621.34
2023-04-11T13:52:19.371Z,160628.06
2023-04-11T13:54:47.024Z,160637.47
2023-04-11T13:57:14.311Z,160622.69
2023-04-11T13:59:42.104Z,160625.41
2023-04-11T14:02:09.572Z,160626.72
2023-04-11T14:04:37.550Z,160649.47
2023-04-11T14:07:05.022Z,160630.75
2023-04-11T14:09:32.978Z,160640.13
2023-04-11T14:12:01.626Z,160636.09
2023-04-11T14:14:29.754Z,160662.88
2023-04-11T14:16:57.188Z,160681.63
2023-04-11T14:19:25.279Z,160676.28
2023-04-11T14:21:52.585Z,160653.50
2023-04-11T14:24:22.507Z,160629.38
2023-04-11T14:26:50.528Z,160660.22
2023-04-11T14:29:19.877Z,160649.47
2023-04-11T14:31:48.576Z,160650.81
2023-04-11T14:34:18.624Z,160630.75
2023-04-11T14:36:46.036Z,160652.19
2023-04-11T14:39:13.809Z,160641.44
2023-04-11T14:41:41.482Z,160656.19
2023-04-11T14:44:09.306Z,160634.75
2023-04-11T14:46:36.893Z,160602.66
2023-04-11T14:49:06.689Z,160621.34
2023-04-11T14:51:33.992Z,160614.66
2023-04-11T14:54:01.532Z,160595.94
2023-04-11T14:56:28.818Z,160581.22
2023-04-11T14:58:56.542Z,160561.13
2023-04-11T15:01:24.624Z,160566.50
2023-04-11T15:03:52.366Z,160543.72
2023-04-11T15:06:20.014Z,160542.38
2023-04-11T15:08:49.524Z,160522.28
2023-04-11T15:11:17.912Z,160527.66
2023-04-11T15:13:48.489Z,160531.69
2023-04-11T15:16:17.464Z,160533.03
2023-04-11T15:18:46.648Z,160492.84
2023-04-11T15:21:15.164Z,160520.97
2023-04-11T15:23:44.402Z,160529.00
2023-04-11T15:26:11.743Z,160507.56
2023-04-11T15:28:40.560Z,160515.59
2023-04-11T15:31:09.533Z,160507.56
2023-04-11T15:33:38.450Z,160525.00
2023-04-11T15:36:07.404Z,160507.56
2023-04-11T15:38:36.281Z,160514.28
2023-04-11T15:41:03.756Z,160515.59
2023-04-11T15:43:32.373Z,160514.28
2023-04-11T15:46:01.681Z,160503.59
2023-04-11T15:48:29.716Z,160490.19
2023-04-11T15:50:57.525Z,160488.88
2023-04-11T15:53:25.448Z,160472.75
2023-04-11T15:55:53.201Z,160472.75
2023-04-11T15:58:21.153Z,160450.03
2023-04-11T16:00:48.865Z,160454.06
2023-04-11T16:03:16.746Z,160451.34
2023-04-11T16:05:45.283Z,160417.88
2023-04-11T16:08:13.215Z,160442.00
2023-04-11T16:10:41.109Z,160427.28
2023-04-11T16:13:09.312Z,160432.66
2023-04-11T16:15:36.935Z,160409.88
2023-04-11T16:18:04.661Z,160408.53
2023-04-11T16:20:35.241Z,160423.25
2023-04-11T16:23:03.193Z,160416.56
2023-04-11T16:25:31.320Z,160391.16
2023-04-11T16:27:59.051Z,160384.47
2023-04-11T16:30:28.040Z,160395.16
2023-04-11T16:32:55.137Z,160379.06
2023-04-11T16:35:22.832Z,160358.97
2023-04-11T16:37:50.246Z,160365.66
2023-04-11T16:40:18.113Z,160355.00
2023-04-11T16:42:45.383Z,160336.25
2023-04-11T16:45:13.302Z,160302.78
2023-04-11T16:47:40.585Z,160308.13
2023-04-11T16:50:08.623Z,160296.09
2023-04-11T16:52:35.917Z,160277.38
2023-04-11T16:55:03.748Z,160274.69
2023-04-11T16:57:33.435Z,160268.00
2023-04-11T17:00:11.896Z,160250.63
2023-04-11T17:02:39.315Z,160254.59
2023-04-11T17:05:08.022Z,160231.88
2023-04-11T17:07:35.452Z,160213.13
2023-04-11T17:10:03.291Z,160198.41
2023-04-11T17:12:31.812Z,160195.75
2023-04-11T17:15:02.790Z,160181.06
2023-04-11T17:17:30.203Z,160162.31
2023-04-11T17:19:57.908Z,160154.31
2023-04-11T17:22:25.488Z,160140.91
2023-04-11T17:24:53.972Z,160132.91
2023-04-11T17:27:21.145Z,160119.53
2023-04-11T17:29:48.900Z,160106.16
2023-04-11T17:32:16.394Z,160094.16
2023-04-11T17:34:44.495Z,160080.78
2023-04-11T17:37:11.861Z,160059.38
2023-04-11T17:39:39.673Z,160060.72
2023-04-11T17:42:07.019Z,160060.72
2023-04-11T17:44:34.774Z,160043.25
2023-04-11T17:47:02.171Z,160039.25
2023-04-11T17:49:29.783Z,160023.25
2023-04-11T17:51:59.639Z,159985.78
2023-04-11T17:54:28.645Z,159985.78
2023-04-11T17:56:56.521Z,159956.38
2023-04-11T17:59:25.853Z,159952.38
2023-04-11T18:01:56.310Z,159939.00
2023-04-11T18:04:24.626Z,159913.59
2023-04-11T18:06:51.932Z,159889.56
2023-04-11T18:09:20.628Z,159890.91
2023-04-11T18:11:48.137Z,159868.19
2023-04-11T18:14:16.864Z,159853.50
2023-04-11T18:16:46.935Z,159840.13
2023-04-11T18:19:14.935Z,159820.06
2023-04-11T18:21:42.950Z,159818.75
2023-04-11T18:24:11.000Z,159816.03
2023-04-11T18:26:38.458Z,159793.34
2023-04-11T18:29:06.360Z,159785.31
2023-04-11T18:31:35.558Z,159747.94
2023-04-11T18:34:06.360Z,159755.94
2023-04-11T18:36:34.779Z,159743.91
2023-04-11T18:39:02.569Z,159719.88
2023-04-11T18:41:29.897Z,159718.50
2023-04-11T18:43:57.786Z,159702.47
2023-04-11T18:46:26.165Z,159686.47
2023-04-11T18:48:54.021Z,159690.44
2023-04-11T18:51:21.472Z,159667.69
2023-04-11T18:53:49.247Z,159653.00
2023-04-11T18:56:16.921Z,159619.59
2023-04-11T18:58:46.510Z,159606.25
2023-04-11T19:01:17.038Z,159592.94
2023-04-11T19:03:46.247Z,159576.88
2023-04-11T19:06:14.181Z,159563.50
2023-04-11T19:08:42.069Z,159555.50
2023-04-11T19:11:09.846Z,159540.81
2023-04-11T19:13:37.742Z,159532.81
2023-04-11T19:16:05.573Z,159518.13
2023-04-11T19:18:33.729Z,159499.41
2023-04-11T19:21:01.199Z,159480.75
2023-04-11T19:23:29.115Z,159462.06
2023-04-11T19:25:57.580Z,159444.72
2023-04-11T19:28:25.877Z,159442.03
2023-04-11T19:30:53.440Z,159405.97
2023-04-11T19:33:24.107Z,159419.34
2023-04-11T19:35:51.837Z,159414.00
2023-04-11T19:38:22.044Z,159412.66
2023-04-11T19:40:49.855Z,159408.63
2023-04-11T19:43:18.059Z,159389.97
2023-04-11T19:45:46.477Z,159388.66
2023-04-11T19:48:16.302Z,159383.31
2023-04-11T19:50:44.730Z,159372.59
2023-04-11T19:53:12.694Z,159355.28
2023-04-11T19:55:40.579Z,159329.91
2023-04-11T19:58:08.396Z,159323.22
2023-04-11T20:00:37.743Z,159320.56
2023-04-11T20:03:08.155Z,159288.53
2023-04-11T20:05:36.299Z,159252.44
2023-04-11T20:08:04.158Z,159219.13
2023-04-11T20:10:31.898Z,159187.09
2023-04-11T20:13:00.195Z,159165.75
2023-04-11T20:15:28.510Z,159140.38
2023-04-11T20:17:56.534Z,159120.41
2023-04-11T20:20:28.601Z,159097.69
2023-04-11T20:22:57.022Z,159055.03
2023-04-11T20:25:24.417Z,159069.69
2023-04-11T20:27:52.827Z,159064.41
2023-04-11T20:30:21.373Z,159075.03
2023-04-11T20:32:49.523Z,159072.41
2023-04-11T20:35:17.029Z,159071.06
2023-04-11T20:37:45.290Z,159073.72
2023-04-11T20:40:14.502Z,159069.69
2023-04-11T20:42:43.050Z,159053.69
2023-04-11T20:45:15.980Z,159063.03
2023-04-11T20:47:50.005Z,159091.03
2023-04-11T20:50:19.500Z,159113.75
2023-04-11T20:52:51.425Z,159132.38
2023-04-11T20:55:19.532Z,159123.06
2023-04-11T20:57:47.196Z,159113.75
2023-04-11T21:00:15.394Z,159085.75
2023-04-11T21:02:45.948Z,159113.75
2023-04-11T21:05:14.393Z,159069.69
2023-04-11T21:07:43.429Z,159081.72
2023-04-11T21:10:12.325Z,159051.06
2023-04-11T21:12:41.440Z,159035.03
2023-04-11T21:15:09.482Z,159004.38
2023-04-11T21:17:39.691Z,158979.00
2023-04-11T21:20:18.068Z,158951.00
2023-04-11T21:22:53.057Z,158947.03
2023-04-11T21:25:21.249Z,158941.69
2023-04-11T21:27:49.987Z,158909.72
2023-04-11T21:30:17.405Z,158909.72
2023-04-11T21:32:45.083Z,158904.38
2023-04-11T21:35:12.579Z,158893.69
2023-04-11T21:37:40.298Z,158877.72
2023-04-11T21:40:08.417Z,158872.38
2023-04-11T21:42:35.999Z,158863.06
2023-04-11T21:45:03.620Z,158861.75
2023-04-11T21:47:31.430Z,158864.38
2023-04-11T21:49:58.889Z,158867.09
2023-04-11T21:52:26.558Z,158861.75
2023-04-11T21:54:53.829Z,158859.03
2023-04-11T21:57:21.468Z,158813.75
2023-04-11T21:59:48.626Z,158823.06
2023-04-11T22:02:16.441Z,158813.75
2023-04-11T22:04:56.389Z,158799.09
2023-04-11T22:07:50.325Z,158787.09
2023-04-11T22:10:22.880Z,158765.72
2023-04-11T22:12:53.991Z,158751.06
2023-04-11T22:15:21.586Z,158728.41
2023-04-11T22:17:51.392Z,158693.78
2023-04-11T22:20:19.749Z,158680.44
2023-04-11T22:22:48.241Z,158651.16
2023-04-11T22:25:18.437Z,158624.50
2023-04-11T22:27:46.042Z,158607.19
2023-04-11T22:30:14.901Z,158581.88
2023-04-11T22:32:42.660Z,158572.56
2023-04-11T22:35:10.668Z,158557.91
2023-04-11T22:37:38.337Z,158535.25
2023-04-11T22:40:06.620Z,158531.28
2023-04-11T22:42:34.988Z,158525.94
2023-04-11T22:45:02.262Z,158524.63
2023-04-11T22:47:30.140Z,158513.94
2023-04-11T22:49:58.088Z,158493.94
2023-04-11T22:52:26.277Z,158488.66
2023-04-11T22:54:55.215Z,158471.31
2023-04-11T22:57:22.998Z,158466.00
2023-04-11T22:59:50.233Z,158454.03
2023-04-11T23:02:18.037Z,158450.03
2023-04-11T23:04:45.701Z,158446.06
2023-04-11T23:07:13.154Z,158455.38
2023-04-11T23:09:40.488Z,158448.72
2023-04-11T23:12:08.450Z,158448.72
2023-04-11T23:14:35.800Z,158447.38
2023-04-11T23:17:03.640Z,158451.34
2023-04-11T23:19:31.101Z,158447.38
2023-04-11T23:21:59.558Z,158438.06
2023-04-11T23:24:29.117Z,158443.38
2023-04-11T23:26:57.198Z,158440.72
2023-04-11T23:29:24.762Z,158427.41
2023-04-11T23:31:52.404Z,158443.38
2023-04-11T23:34:19.828Z,158434.06
2023-04-11T23:36:48.314Z,158410.13
2023-04-11T23:39:15.432Z,158416.72
2023-04-11T23:41:42.901Z,158419.44
2023-04-11T23:44:10.117Z,158410.13
2023-04-11T23:46:38.927Z,158410.13
2023-04-11T23:49:06.291Z,158422.06
2023-04-11T23:51:34.100Z,158428.72
2023-04-11T23:54:01.785Z,158418.09
2023-04-11T23:56:29.644Z,158423.38
2023-04-11T23:58:57.265Z,158422.06
